sensor_id;sensor_type;location;lat;lon;timestamp;temperature;humidity
21602;DHT22;10963;50.934;4.668;2023-04-15T00:01:13;10.90;99.90
21602;DHT22;10963;50.934;4.668;2023-04-15T00:03:46;10.90;99.90
21602;DHT22;10963;50.934;4.668;2023-04-15T00:06:14;10.90;99.90
21602;DHT22;10963;50.934;4.668;2023-04-15T00:08:46;10.90;99.90
21602;DHT22;10963;50.934;4.668;2023-04-15T00:11:15;11.00;99.90
21602;DHT22;10963;50.934;4.668;2023-04-15T00:13:42;11.00;99.90
21602;DHT22;10963;50.934;4.668;2023-04-15T00:16:11;11.00;99.90
21602;DHT22;10963;50.934;4.668;2023-04-15T00:18:39;11.10;99.90
21602;DHT22;10963;50.934;4.668;2023-04-15T00:21:07;11.10;99.90
21602;DHT22;10963;50.934;4.668;2023-04-15T00:23:36;11.00;99.90
21602;DHT22;10963;50.934;4.668;2023-04-15T00:26:04;11.00;99.90
21602;DHT22;10963;50.934;4.668;2023-04-15T00:28:32;10.90;99.90
21602;DHT22;10963;50.934;4.668;2023-04-15T00:30:58;10.90;99.90
21602;DHT22;10963;50.934;4.668;2023-04-15T00:33:23;10.90;99.90
21602;DHT22;10963;50.934;4.668;2023-04-15T00:35:52;10.90;99.90
21602;DHT22;10963;50.934;4.668;2023-04-15T00:38:18;11.00;99.90
21602;DHT22;10963;50.934;4.668;2023-04-15T00:40:43;11.00;99.90
21602;DHT22;10963;50.934;4.668;2023-04-15T00:43:09;11.10;99.90
21602;DHT22;10963;50.934;4.668;2023-04-15T00:45:35;11.00;99.90
21602;DHT22;10963;50.934;4.668;2023-04-15T00:48:01;11.10;99.90
21602;DHT22;10963;50.934;4.668;2023-04-15T00:50:27;11.00;99.90
21602;DHT22;10963;50.934;4.668;2023-04-15T00:52:53;11.00;99.90
21602;DHT22;10963;50.934;4.668;2023-04-15T00:55:19;11.00;99.90
21602;DHT22;10963;50.934;4.668;2023-04-15T00:57:45;10.90;99.90
21602;DHT22;10963;50.934;4.668;2023-04-15T01:00:11;10.70;99.90
21602;DHT22;10963;50.934;4.668;2023-04-15T01:02:37;10.80;99.90
21602;DHT22;10963;50.934;4.668;2023-04-15T01:05:06;10.80;99.90
21602;DHT22;10963;50.934;4.668;2023-04-15T01:07:32;10.90;99.90
21602;DHT22;10963;50.934;4.668;2023-04-15T01:09:58;10.90;99.90
21602;DHT22;10963;50.934;4.668;2023-04-15T01:12:25;10.90;99.90
21602;DHT22;10963;50.934;4.668;2023-04-15T01:14:52;10.90;99.90
21602;DHT22;10963;50.934;4.668;2023-04-15T01:17:18;10.90;99.90
21602;DHT22;10963;50.934;4.668;2023-04-15T01:19:45;10.90;99.90
21602;DHT22;10963;50.934;4.668;2023-04-15T01:22:11;11.00;99.90
21602;DHT22;10963;50.934;4.668;2023-04-15T01:24:36;11.00;99.90
21602;DHT22;10963;50.934;4.668;2023-04-15T01:27:03;11.00;99.90
21602;DHT22;10963;50.934;4.668;2023-04-15T01:29:37;10.90;99.90
21602;DHT22;10963;50.934;4.668;2023-04-15T01:32:05;10.90;99.90
21602;DHT22;10963;50.934;4.668;2023-04-15T01:34:33;10.80;99.90
21602;DHT22;10963;50.934;4.668;2023-04-15T01:37:04;10.80;99.90
21602;DHT22;10963;50.934;4.668;2023-04-15T01:39:30;10.90;99.90
21602;DHT22;10963;50.934;4.668;2023-04-15T01:41:55;10.90;99.90
21602;DHT22;10963;50.934;4.668;2023-04-15T01:44:24;10.80;99.90
21602;DHT22;10963;50.934;4.668;2023-04-15T01:46:49;10.90;99.90
21602;DHT22;10963;50.934;4.668;2023-04-15T01:49:17;11.00;99.90
21602;DHT22;10963;50.934;4.668;2023-04-15T01:51:45;11.00;99.90
21602;DHT22;10963;50.934;4.668;2023-04-15T01:54:11;10.90;99.90
21602;DHT22;10963;50.934;4.668;2023-04-15T01:56:39;10.90;99.90
21602;DHT22;10963;50.934;4.668;2023-04-15T01:59:07;10.90;99.90
21602;DHT22;10963;50.934;4.668;2023-04-15T02:01:35;10.90;99.90
21602;DHT22;10963;50.934;4.668;2023-04-15T02:04:01;10.90;99.90
21602;DHT22;10963;50.934;4.668;2023-04-15T02:06:26;11.00;99.90
21602;DHT22;10963;50.934;4.668;2023-04-15T02:08:54;10.90;99.90
21602;DHT22;10963;50.934;4.668;2023-04-15T02:11:20;10.80;99.90
21602;DHT22;10963;50.934;4.668;2023-04-15T02:13:47;10.70;99.90
21602;DHT22;10963;50.934;4.668;2023-04-15T02:16:19;10.60;99.90
21602;DHT22;10963;50.934;4.668;2023-04-15T02:18:49;10.60;99.90
21602;DHT22;10963;50.934;4.668;2023-04-15T02:21:16;10.50;99.90
21602;DHT22;10963;50.934;4.668;2023-04-15T02:23:43;10.50;99.90
21602;DHT22;10963;50.934;4.668;2023-04-15T02:26:09;10.40;99.90
21602;DHT22;10963;50.934;4.668;2023-04-15T02:28:37;10.50;99.90
21602;DHT22;10963;50.934;4.668;2023-04-15T02:31:06;10.50;99.90
21602;DHT22;10963;50.934;4.668;2023-04-15T02:33:32;10.40;99.90
21602;DHT22;10963;50.934;4.668;2023-04-15T02:36:00;10.40;99.90
21602;DHT22;10963;50.934;4.668;2023-04-15T02:38:26;10.30;99.90
21602;DHT22;10963;50.934;4.668;2023-04-15T02:40:54;10.30;99.90
21602;DHT22;10963;50.934;4.668;2023-04-15T02:43:19;10.30;99.90
21602;DHT22;10963;50.934;4.668;2023-04-15T02:45:45;10.30;99.90
21602;DHT22;10963;50.934;4.668;2023-04-15T02:48:11;10.40;99.90
21602;DHT22;10963;50.934;4.668;2023-04-15T02:50:39;10.40;99.90
21602;DHT22;10963;50.934;4.668;2023-04-15T02:53:05;10.40;99.90
21602;DHT22;10963;50.934;4.668;2023-04-15T02:55:31;10.40;99.90
21602;DHT22;10963;50.934;4.668;2023-04-15T02:57:57;10.50;99.90
21602;DHT22;10963;50.934;4.668;2023-04-15T03:00:28;10.50;99.90
21602;DHT22;10963;50.934;4.668;2023-04-15T03:03:00;10.50;99.90
21602;DHT22;10963;50.934;4.668;2023-04-15T03:05:26;10.50;99.90
21602;DHT22;10963;50.934;4.668;2023-04-15T03:07:52;10.60;99.90
21602;DHT22;10963;50.934;4.668;2023-04-15T03:10:20;10.50;99.90
21602;DHT22;10963;50.934;4.668;2023-04-15T03:12:48;10.30;99.90
21602;DHT22;10963;50.934;4.668;2023-04-15T03:15:19;10.20;99.90
21602;DHT22;10963;50.934;4.668;2023-04-15T03:17:47;10.10;99.90
21602;DHT22;10963;50.934;4.668;2023-04-15T03:20:13;10.30;99.90
21602;DHT22;10963;50.934;4.668;2023-04-15T03:22:41;10.40;99.90
21602;DHT22;10963;50.934;4.668;2023-04-15T03:25:07;10.30;99.90
21602;DHT22;10963;50.934;4.668;2023-04-15T03:27:37;10.10;99.90
21602;DHT22;10963;50.934;4.668;2023-04-15T03:30:03;10.00;99.90
21602;DHT22;10963;50.934;4.668;2023-04-15T03:32:28;10.00;99.90
21602;DHT22;10963;50.934;4.668;2023-04-15T03:34:54;10.00;99.90
21602;DHT22;10963;50.934;4.668;2023-04-15T03:37:22;10.00;99.90
21602;DHT22;10963;50.934;4.668;2023-04-15T03:39:48;10.20;99.90
21602;DHT22;10963;50.934;4.668;2023-04-15T03:42:18;10.10;99.90
21602;DHT22;10963;50.934;4.668;2023-04-15T03:44:46;10.10;99.90
21602;DHT22;10963;50.934;4.668;2023-04-15T03:47:14;10.00;99.90
21602;DHT22;10963;50.934;4.668;2023-04-15T03:49:40;10.10;99.90
21602;DHT22;10963;50.934;4.668;2023-04-15T03:52:08;10.00;99.90
21602;DHT22;10963;50.934;4.668;2023-04-15T03:54:36;9.90;99.90
21602;DHT22;10963;50.934;4.668;2023-04-15T03:57:01;9.80;99.90
21602;DHT22;10963;50.934;4.668;2023-04-15T03:59:30;9.80;99.90
21602;DHT22;10963;50.934;4.668;2023-04-15T04:01:55;9.80;99.90
21602;DHT22;10963;50.934;4.668;2023-04-15T04:04:21;9.90;99.90
21602;DHT22;10963;50.934;4.668;2023-04-15T04:06:47;10.00;99.90
21602;DHT22;10963;50.934;4.668;2023-04-15T04:09:12;9.90;99.90
21602;DHT22;10963;50.934;4.668;2023-04-15T04:11:40;9.90;99.90
21602;DHT22;10963;50.934;4.668;2023-04-15T04:14:08;9.90;99.90
21602;DHT22;10963;50.934;4.668;2023-04-15T04:16:34;9.80;99.90
21602;DHT22;10963;50.934;4.668;2023-04-15T04:19:00;9.80;99.90
21602;DHT22;10963;50.934;4.668;2023-04-15T04:21:26;9.90;99.90
21602;DHT22;10963;50.934;4.668;2023-04-15T04:23:54;9.90;99.90
21602;DHT22;10963;50.934;4.668;2023-04-15T04:26:21;9.70;99.90
21602;DHT22;10963;50.934;4.668;2023-04-15T04:28:47;9.70;99.90
21602;DHT22;10963;50.934;4.668;2023-04-15T04:31:15;9.70;99.90
21602;DHT22;10963;50.934;4.668;2023-04-15T04:33:41;9.70;99.90
21602;DHT22;10963;50.934;4.668;2023-04-15T04:36:09;9.70;99.90
21602;DHT22;10963;50.934;4.668;2023-04-15T04:38:37;9.60;99.90
21602;DHT22;10963;50.934;4.668;2023-04-15T04:41:05;9.70;99.90
21602;DHT22;10963;50.934;4.668;2023-04-15T04:43:33;9.70;99.90
21602;DHT22;10963;50.934;4.668;2023-04-15T04:45:58;9.80;99.90
21602;DHT22;10963;50.934;4.668;2023-04-15T04:48:24;9.80;99.90
21602;DHT22;10963;50.934;4.668;2023-04-15T04:50:50;9.60;99.90
21602;DHT22;10963;50.934;4.668;2023-04-15T04:53:16;9.70;99.90
21602;DHT22;10963;50.934;4.668;2023-04-15T04:55:44;9.80;99.90
21602;DHT22;10963;50.934;4.668;2023-04-15T04:58:12;9.70;99.90
21602;DHT22;10963;50.934;4.668;2023-04-15T05:00:40;9.70;99.90
21602;DHT22;10963;50.934;4.668;2023-04-15T05:03:06;9.70;99.90
21602;DHT22;10963;50.934;4.668;2023-04-15T05:05:32;9.80;99.90
21602;DHT22;10963;50.934;4.668;2023-04-15T05:07:59;9.80;99.90
21602;DHT22;10963;50.934;4.668;2023-04-15T05:10:25;9.90;99.90
21602;DHT22;10963;50.934;4.668;2023-04-15T05:12:53;9.80;99.90
21602;DHT22;10963;50.934;4.668;2023-04-15T05:15:24;9.80;99.90
21602;DHT22;10963;50.934;4.668;2023-04-15T05:17:50;10.00;99.90
21602;DHT22;10963;50.934;4.668;2023-04-15T05:20:16;10.00;99.90
21602;DHT22;10963;50.934;4.668;2023-04-15T05:22:41;10.10;99.90
21602;DHT22;10963;50.934;4.668;2023-04-15T05:25:09;10.30;99.90
21602;DHT22;10963;50.934;4.668;2023-04-15T05:27:35;10.20;99.90
21602;DHT22;10963;50.934;4.668;2023-04-15T05:30:06;10.20;99.90
21602;DHT22;10963;50.934;4.668;2023-04-15T05:32:34;10.20;99.90
21602;DHT22;10963;50.934;4.668;2023-04-15T05:35:00;10.20;99.90
21602;DHT22;10963;50.934;4.668;2023-04-15T05:37:30;10.10;99.90
21602;DHT22;10963;50.934;4.668;2023-04-15T05:39:56;10.20;99.90
21602;DHT22;10963;50.934;4.668;2023-04-15T05:42:23;10.50;99.90
21602;DHT22;10963;50.934;4.668;2023-04-15T05:44:49;10.50;99.90
21602;DHT22;10963;50.934;4.668;2023-04-15T05:47:15;10.50;99.90
21602;DHT22;10963;50.934;4.668;2023-04-15T05:49:41;10.50;99.90
21602;DHT22;10963;50.934;4.668;2023-04-15T05:52:07;10.50;99.90
21602;DHT22;10963;50.934;4.668;2023-04-15T05:54:35;10.60;99.90
21602;DHT22;10963;50.934;4.668;2023-04-15T05:57:03;10.90;99.90
21602;DHT22;10963;50.934;4.668;2023-04-15T05:59:31;10.90;99.90
21602;DHT22;10963;50.934;4.668;2023-04-15T06:02:00;10.90;99.90
21602;DHT22;10963;50.934;4.668;2023-04-15T06:04:25;10.80;99.90
21602;DHT22;10963;50.934;4.668;2023-04-15T06:06:53;11.00;99.90
21602;DHT22;10963;50.934;4.668;2023-04-15T06:09:21;11.10;99.90
21602;DHT22;10963;50.934;4.668;2023-04-15T06:11:47;11.00;99.90
21602;DHT22;10963;50.934;4.668;2023-04-15T06:14:12;11.10;99.90
21602;DHT22;10963;50.934;4.668;2023-04-15T06:16:41;11.20;99.90
21602;DHT22;10963;50.934;4.668;2023-04-15T06:19:09;11.30;99.90
21602;DHT22;10963;50.934;4.668;2023-04-15T06:21:37;11.40;99.90
21602;DHT22;10963;50.934;4.668;2023-04-15T06:24:03;11.70;99.90
21602;DHT22;10963;50.934;4.668;2023-04-15T06:26:28;11.50;99.90
21602;DHT22;10963;50.934;4.668;2023-04-15T06:28:54;11.30;99.90
21602;DHT22;10963;50.934;4.668;2023-04-15T06:31:20;11.30;99.90
21602;DHT22;10963;50.934;4.668;2023-04-15T06:33:46;11.30;99.90
21602;DHT22;10963;50.934;4.668;2023-04-15T06:36:13;11.30;99.90
21602;DHT22;10963;50.934;4.668;2023-04-15T06:38:42;11.40;99.90
21602;DHT22;10963;50.934;4.668;2023-04-15T06:41:08;11.70;99.90
21602;DHT22;10963;50.934;4.668;2023-04-15T06:43:38;11.80;99.90
21602;DHT22;10963;50.934;4.668;2023-04-15T06:46:07;11.90;99.90
21602;DHT22;10963;50.934;4.668;2023-04-15T06:48:33;12.10;99.90
21602;DHT22;10963;50.934;4.668;2023-04-15T06:50:59;12.10;99.90
21602;DHT22;10963;50.934;4.668;2023-04-15T06:53:25;12.40;99.90
21602;DHT22;10963;50.934;4.668;2023-04-15T06:55:53;12.30;99.90
21602;DHT22;10963;50.934;4.668;2023-04-15T06:58:26;12.40;99.90
21602;DHT22;10963;50.934;4.668;2023-04-15T07:00:55;12.60;99.90
21602;DHT22;10963;50.934;4.668;2023-04-15T07:03:20;12.60;99.90
21602;DHT22;10963;50.934;4.668;2023-04-15T07:05:46;12.50;99.90
21602;DHT22;10963;50.934;4.668;2023-04-15T07:08:13;12.40;99.90
21602;DHT22;10963;50.934;4.668;2023-04-15T07:10:39;12.50;99.90
21602;DHT22;10963;50.934;4.668;2023-04-15T07:13:04;12.70;99.90
21602;DHT22;10963;50.934;4.668;2023-04-15T07:15:33;12.90;99.90
21602;DHT22;10963;50.934;4.668;2023-04-15T07:18:01;12.90;99.90
21602;DHT22;10963;50.934;4.668;2023-04-15T07:20:27;12.80;99.90
21602;DHT22;10963;50.934;4.668;2023-04-15T07:22:52;13.00;99.90
21602;DHT22;10963;50.934;4.668;2023-04-15T07:25:23;13.10;99.90
21602;DHT22;10963;50.934;4.668;2023-04-15T07:27:52;13.00;99.90
21602;DHT22;10963;50.934;4.668;2023-04-15T07:30:18;13.00;99.90
21602;DHT22;10963;50.934;4.668;2023-04-15T07:32:43;13.00;99.90
21602;DHT22;10963;50.934;4.668;2023-04-15T07:35:12;13.10;99.90
21602;DHT22;10963;50.934;4.668;2023-04-15T07:37:39;12.90;99.90
21602;DHT22;10963;50.934;4.668;2023-04-15T07:40:05;12.80;99.90
21602;DHT22;10963;50.934;4.668;2023-04-15T07:42:32;13.00;99.90
21602;DHT22;10963;50.934;4.668;2023-04-15T07:44:58;12.90;99.90
21602;DHT22;10963;50.934;4.668;2023-04-15T07:47:24;12.80;99.90
21602;DHT22;10963;50.934;4.668;2023-04-15T07:49:52;12.80;99.90
21602;DHT22;10963;50.934;4.668;2023-04-15T07:52:18;13.00;99.90
21602;DHT22;10963;50.934;4.668;2023-04-15T07:54:46;13.20;99.90
21602;DHT22;10963;50.934;4.668;2023-04-15T07:57:14;13.30;99.90
21602;DHT22;10963;50.934;4.668;2023-04-15T07:59:41;13.70;99.90
21602;DHT22;10963;50.934;4.668;2023-04-15T08:02:06;14.00;99.90
21602;DHT22;10963;50.934;4.668;2023-04-15T08:04:32;14.20;99.90
21602;DHT22;10963;50.934;4.668;2023-04-15T08:07:01;14.20;99.90
21602;DHT22;10963;50.934;4.668;2023-04-15T08:09:27;14.40;99.90
21602;DHT22;10963;50.934;4.668;2023-04-15T08:11:55;14.50;99.90
21602;DHT22;10963;50.934;4.668;2023-04-15T08:14:24;14.50;99.90
21602;DHT22;10963;50.934;4.668;2023-04-15T08:16:50;14.50;99.90
21602;DHT22;10963;50.934;4.668;2023-04-15T08:19:15;14.40;99.90
21602;DHT22;10963;50.934;4.668;2023-04-15T08:21:41;14.60;99.90
21602;DHT22;10963;50.934;4.668;2023-04-15T08:24:09;14.70;99.90
21602;DHT22;10963;50.934;4.668;2023-04-15T08:26:40;14.80;99.90
21602;DHT22;10963;50.934;4.668;2023-04-15T08:29:06;14.90;99.90
21602;DHT22;10963;50.934;4.668;2023-04-15T08:31:34;14.80;99.90
21602;DHT22;10963;50.934;4.668;2023-04-15T08:34:00;15.10;99.90
21602;DHT22;10963;50.934;4.668;2023-04-15T08:36:26;15.20;99.90
21602;DHT22;10963;50.934;4.668;2023-04-15T08:38:51;15.20;99.90
21602;DHT22;10963;50.934;4.668;2023-04-15T08:41:21;15.30;99.90
21602;DHT22;10963;50.934;4.668;2023-04-15T08:46:18;15.00;99.90
21602;DHT22;10963;50.934;4.668;2023-04-15T08:48:46;15.10;99.90
21602;DHT22;10963;50.934;4.668;2023-04-15T08:51:15;15.00;99.90
21602;DHT22;10963;50.934;4.668;2023-04-15T08:53:43;15.10;99.90
21602;DHT22;10963;50.934;4.668;2023-04-15T08:56:10;15.40;99.90
21602;DHT22;10963;50.934;4.668;2023-04-15T08:58:40;15.60;99.90
21602;DHT22;10963;50.934;4.668;2023-04-15T09:01:08;15.60;99.90
21602;DHT22;10963;50.934;4.668;2023-04-15T09:03:34;15.70;99.90
21602;DHT22;10963;50.934;4.668;2023-04-15T09:06:03;15.80;99.90
21602;DHT22;10963;50.934;4.668;2023-04-15T09:08:30;15.80;99.90
21602;DHT22;10963;50.934;4.668;2023-04-15T09:10:56;15.70;99.90
21602;DHT22;10963;50.934;4.668;2023-04-15T09:13:24;15.70;99.90
21602;DHT22;10963;50.934;4.668;2023-04-15T09:15:50;15.80;99.90
21602;DHT22;10963;50.934;4.668;2023-04-15T09:18:32;16.10;99.90
21602;DHT22;10963;50.934;4.668;2023-04-15T09:21:05;16.10;99.90
21602;DHT22;10963;50.934;4.668;2023-04-15T09:23:33;16.00;99.90
21602;DHT22;10963;50.934;4.668;2023-04-15T09:26:01;16.00;99.90
21602;DHT22;10963;50.934;4.668;2023-04-15T09:28:27;16.00;99.90
21602;DHT22;10963;50.934;4.668;2023-04-15T09:31:00;16.10;99.90
21602;DHT22;10963;50.934;4.668;2023-04-15T09:33:27;16.20;99.90
21602;DHT22;10963;50.934;4.668;2023-04-15T09:36:02;16.00;99.90
21602;DHT22;10963;50.934;4.668;2023-04-15T09:38:29;16.00;99.90
21602;DHT22;10963;50.934;4.668;2023-04-15T09:40:59;15.90;99.90
21602;DHT22;10963;50.934;4.668;2023-04-15T09:43:40;15.90;99.90
21602;DHT22;10963;50.934;4.668;2023-04-15T09:46:06;15.90;99.90
21602;DHT22;10963;50.934;4.668;2023-04-15T09:48:35;15.80;99.90
21602;DHT22;10963;50.934;4.668;2023-04-15T09:51:03;15.80;99.90
21602;DHT22;10963;50.934;4.668;2023-04-15T09:53:35;15.80;99.90
21602;DHT22;10963;50.934;4.668;2023-04-15T09:56:01;15.70;99.90
21602;DHT22;10963;50.934;4.668;2023-04-15T09:58:33;15.70;99.90
21602;DHT22;10963;50.934;4.668;2023-04-15T10:01:03;15.60;99.90
21602;DHT22;10963;50.934;4.668;2023-04-15T10:03:33;15.70;99.90
21602;DHT22;10963;50.934;4.668;2023-04-15T10:06:03;16.00;99.90
21602;DHT22;10963;50.934;4.668;2023-04-15T10:08:33;16.00;99.90
21602;DHT22;10963;50.934;4.668;2023-04-15T10:11:02;16.00;99.90
21602;DHT22;10963;50.934;4.668;2023-04-15T10:13:30;16.00;99.90
21602;DHT22;10963;50.934;4.668;2023-04-15T10:16:10;16.20;99.90
21602;DHT22;10963;50.934;4.668;2023-04-15T10:18:46;16.20;99.90
21602;DHT22;10963;50.934;4.668;2023-04-15T10:21:13;16.30;99.90
21602;DHT22;10963;50.934;4.668;2023-04-15T10:23:45;16.20;99.90
21602;DHT22;10963;50.934;4.668;2023-04-15T10:26:11;16.20;99.90
21602;DHT22;10963;50.934;4.668;2023-04-15T10:28:39;16.20;99.90
21602;DHT22;10963;50.934;4.668;2023-04-15T10:31:08;16.40;99.90
21602;DHT22;10963;50.934;4.668;2023-04-15T10:33:36;16.60;99.90
21602;DHT22;10963;50.934;4.668;2023-04-15T10:36:03;16.50;99.90
21602;DHT22;10963;50.934;4.668;2023-04-15T10:38:42;16.60;99.90
21602;DHT22;10963;50.934;4.668;2023-04-15T10:41:24;17.10;99.90
21602;DHT22;10963;50.934;4.668;2023-04-15T10:44:03;17.10;99.90
21602;DHT22;10963;50.934;4.668;2023-04-15T10:46:41;17.20;99.90
21602;DHT22;10963;50.934;4.668;2023-04-15T10:49:14;17.10;99.90
21602;DHT22;10963;50.934;4.668;2023-04-15T11:02:56;16.90;99.10
21602;DHT22;10963;50.934;4.668;2023-04-15T11:08:11;16.70;95.20
21602;DHT22;10963;50.934;4.668;2023-04-15T11:13:14;16.50;96.90
21602;DHT22;10963;50.934;4.668;2023-04-15T11:15:44;16.60;98.70
21602;DHT22;10963;50.934;4.668;2023-04-15T11:20:41;16.80;99.30
21602;DHT22;10963;50.934;4.668;2023-04-15T11:23:09;16.90;98.60
21602;DHT22;10963;50.934;4.668;2023-04-15T11:25:35;17.00;99.00
21602;DHT22;10963;50.934;4.668;2023-04-15T11:28:05;16.90;98.20
21602;DHT22;10963;50.934;4.668;2023-04-15T11:30:35;16.80;97.00
21602;DHT22;10963;50.934;4.668;2023-04-15T11:33:06;16.90;95.40
21602;DHT22;10963;50.934;4.668;2023-04-15T11:35:33;16.80;97.30
21602;DHT22;10963;50.934;4.668;2023-04-15T11:38:09;16.90;99.20
21602;DHT22;10963;50.934;4.668;2023-04-15T11:40:37;17.20;99.90
21602;DHT22;10963;50.934;4.668;2023-04-15T11:43:09;17.20;97.40
21602;DHT22;10963;50.934;4.668;2023-04-15T11:45:37;17.10;96.10
21602;DHT22;10963;50.934;4.668;2023-04-15T11:48:10;16.90;97.00
21602;DHT22;10963;50.934;4.668;2023-04-15T11:50:37;16.90;95.20
21602;DHT22;10963;50.934;4.668;2023-04-15T11:53:08;16.80;95.80
21602;DHT22;10963;50.934;4.668;2023-04-15T11:55:45;16.70;93.20
21602;DHT22;10963;50.934;4.668;2023-04-15T12:00:51;16.70;93.50
21602;DHT22;10963;50.934;4.668;2023-04-15T12:03:23;16.70;94.20
21602;DHT22;10963;50.934;4.668;2023-04-15T12:14:02;16.80;91.70
21602;DHT22;10963;50.934;4.668;2023-04-15T12:16:28;16.60;94.60
21602;DHT22;10963;50.934;4.668;2023-04-15T12:18:58;16.60;95.70
21602;DHT22;10963;50.934;4.668;2023-04-15T12:21:25;16.80;95.80
21602;DHT22;10963;50.934;4.668;2023-04-15T12:23:56;16.90;92.40
21602;DHT22;10963;50.934;4.668;2023-04-15T12:26:29;16.70;92.40
21602;DHT22;10963;50.934;4.668;2023-04-15T12:29:06;16.80;91.70
21602;DHT22;10963;50.934;4.668;2023-04-15T12:31:36;16.90;90.10
21602;DHT22;10963;50.934;4.668;2023-04-15T12:34:06;17.00;88.70
21602;DHT22;10963;50.934;4.668;2023-04-15T12:36:36;17.00;88.30
21602;DHT22;10963;50.934;4.668;2023-04-15T12:39:03;17.10;88.20
21602;DHT22;10963;50.934;4.668;2023-04-15T12:41:29;16.90;83.40
21602;DHT22;10963;50.934;4.668;2023-04-15T12:43:57;16.80;88.10
21602;DHT22;10963;50.934;4.668;2023-04-15T12:46:25;16.90;90.50
21602;DHT22;10963;50.934;4.668;2023-04-15T12:48:51;16.90;89.80
21602;DHT22;10963;50.934;4.668;2023-04-15T12:51:18;17.00;91.20
21602;DHT22;10963;50.934;4.668;2023-04-15T12:53:46;17.10;91.70
21602;DHT22;10963;50.934;4.668;2023-04-15T12:56:12;17.00;90.90
21602;DHT22;10963;50.934;4.668;2023-04-15T12:58:40;16.90;92.20
21602;DHT22;10963;50.934;4.668;2023-04-15T13:01:06;16.90;93.10
21602;DHT22;10963;50.934;4.668;2023-04-15T13:03:36;16.80;92.60
21602;DHT22;10963;50.934;4.668;2023-04-15T13:06:05;16.60;89.60
21602;DHT22;10963;50.934;4.668;2023-04-15T13:08:31;16.50;89.70
21602;DHT22;10963;50.934;4.668;2023-04-15T13:10:57;16.30;91.20
21602;DHT22;10963;50.934;4.668;2023-04-15T13:13:23;16.40;91.10
21602;DHT22;10963;50.934;4.668;2023-04-15T13:15:50;16.60;93.40
21602;DHT22;10963;50.934;4.668;2023-04-15T13:18:19;16.80;90.10
21602;DHT22;10963;50.934;4.668;2023-04-15T13:20:47;16.80;90.80
21602;DHT22;10963;50.934;4.668;2023-04-15T13:23:15;17.00;91.80
21602;DHT22;10963;50.934;4.668;2023-04-15T13:25:41;17.10;91.00
21602;DHT22;10963;50.934;4.668;2023-04-15T13:28:11;17.20;92.90
21602;DHT22;10963;50.934;4.668;2023-04-15T13:30:37;17.20;94.00
21602;DHT22;10963;50.934;4.668;2023-04-15T13:33:03;17.30;92.70
21602;DHT22;10963;50.934;4.668;2023-04-15T13:35:29;17.10;91.80
21602;DHT22;10963;50.934;4.668;2023-04-15T13:37:58;17.00;93.20
21602;DHT22;10963;50.934;4.668;2023-04-15T13:40:23;16.80;92.80
21602;DHT22;10963;50.934;4.668;2023-04-15T13:42:50;16.80;95.40
21602;DHT22;10963;50.934;4.668;2023-04-15T13:45:17;16.90;95.00
21602;DHT22;10963;50.934;4.668;2023-04-15T13:47:43;17.00;95.10
21602;DHT22;10963;50.934;4.668;2023-04-15T13:50:09;17.20;95.60
21602;DHT22;10963;50.934;4.668;2023-04-15T13:52:35;17.10;96.40
21602;DHT22;10963;50.934;4.668;2023-04-15T13:55:03;16.80;95.50
21602;DHT22;10963;50.934;4.668;2023-04-15T13:57:34;16.80;95.90
21602;DHT22;10963;50.934;4.668;2023-04-15T14:00:02;17.10;97.20
21602;DHT22;10963;50.934;4.668;2023-04-15T14:02:31;17.20;93.70
21602;DHT22;10963;50.934;4.668;2023-04-15T14:04:57;17.10;94.70
21602;DHT22;10963;50.934;4.668;2023-04-15T14:07:25;17.10;97.60
21602;DHT22;10963;50.934;4.668;2023-04-15T14:09:53;16.90;93.20
21602;DHT22;10963;50.934;4.668;2023-04-15T14:12:19;16.80;94.50
21602;DHT22;10963;50.934;4.668;2023-04-15T14:14:47;17.00;94.40
21602;DHT22;10963;50.934;4.668;2023-04-15T14:17:13;17.00;93.10
21602;DHT22;10963;50.934;4.668;2023-04-15T14:19:41;16.70;94.10
21602;DHT22;10963;50.934;4.668;2023-04-15T14:22:09;16.60;94.60
21602;DHT22;10963;50.934;4.668;2023-04-15T14:24:35;16.50;95.30
21602;DHT22;10963;50.934;4.668;2023-04-15T14:27:05;16.50;96.30
21602;DHT22;10963;50.934;4.668;2023-04-15T14:29:35;16.40;95.50
21602;DHT22;10963;50.934;4.668;2023-04-15T14:32:01;16.40;95.40
21602;DHT22;10963;50.934;4.668;2023-04-15T14:34:26;16.10;95.30
21602;DHT22;10963;50.934;4.668;2023-04-15T14:36:54;15.90;95.70
21602;DHT22;10963;50.934;4.668;2023-04-15T14:39:20;15.90;95.40
21602;DHT22;10963;50.934;4.668;2023-04-15T14:41:48;15.90;95.60
21602;DHT22;10963;50.934;4.668;2023-04-15T14:44:14;15.80;95.80
21602;DHT22;10963;50.934;4.668;2023-04-15T14:46:42;15.70;96.70
21602;DHT22;10963;50.934;4.668;2023-04-15T14:49:10;15.90;97.20
21602;DHT22;10963;50.934;4.668;2023-04-15T14:51:38;16.00;96.90
21602;DHT22;10963;50.934;4.668;2023-04-15T14:54:04;16.20;96.60
21602;DHT22;10963;50.934;4.668;2023-04-15T14:56:30;16.10;98.80
21602;DHT22;10963;50.934;4.668;2023-04-15T14:58:58;16.10;98.10
21602;DHT22;10963;50.934;4.668;2023-04-15T15:01:24;15.90;97.70
21602;DHT22;10963;50.934;4.668;2023-04-15T15:03:52;15.70;96.80
21602;DHT22;10963;50.934;4.668;2023-04-15T15:06:20;15.60;97.70
21602;DHT22;10963;50.934;4.668;2023-04-15T15:08:46;15.40;97.30
21602;DHT22;10963;50.934;4.668;2023-04-15T15:11:14;15.50;96.10
21602;DHT22;10963;50.934;4.668;2023-04-15T15:13:40;15.70;95.40
21602;DHT22;10963;50.934;4.668;2023-04-15T15:16:06;15.90;96.30
21602;DHT22;10963;50.934;4.668;2023-04-15T15:18:32;15.80;97.00
21602;DHT22;10963;50.934;4.668;2023-04-15T15:20:57;15.60;98.00
21602;DHT22;10963;50.934;4.668;2023-04-15T15:23:23;15.80;98.80
21602;DHT22;10963;50.934;4.668;2023-04-15T15:25:51;16.00;96.70
21602;DHT22;10963;50.934;4.668;2023-04-15T15:28:17;16.10;97.50
21602;DHT22;10963;50.934;4.668;2023-04-15T15:30:45;16.00;96.60
21602;DHT22;10963;50.934;4.668;2023-04-15T15:33:10;15.90;98.10
21602;DHT22;10963;50.934;4.668;2023-04-15T15:35:36;15.90;98.70
21602;DHT22;10963;50.934;4.668;2023-04-15T15:38:04;15.80;98.50
21602;DHT22;10963;50.934;4.668;2023-04-15T15:40:32;15.90;98.90
21602;DHT22;10963;50.934;4.668;2023-04-15T15:42:58;16.00;98.70
21602;DHT22;10963;50.934;4.668;2023-04-15T15:45:23;16.00;99.90
21602;DHT22;10963;50.934;4.668;2023-04-15T15:47:50;16.00;99.90
21602;DHT22;10963;50.934;4.668;2023-04-15T15:50:16;15.90;99.30
21602;DHT22;10963;50.934;4.668;2023-04-15T15:52:44;16.00;99.90
21602;DHT22;10963;50.934;4.668;2023-04-15T15:55:12;16.10;98.50
21602;DHT22;10963;50.934;4.668;2023-04-15T15:57:40;16.00;99.90
21602;DHT22;10963;50.934;4.668;2023-04-15T16:00:06;16.10;98.40
21602;DHT22;10963;50.934;4.668;2023-04-15T16:02:36;16.10;99.10
21602;DHT22;10963;50.934;4.668;2023-04-15T16:05:04;16.10;98.80
21602;DHT22;10963;50.934;4.668;2023-04-15T16:07:32;16.00;98.70